Time;durP1;ratioP1;P1;durP2;ratioP2;P2;SDS_P1;SDS_P2;PMS_P1;PMS_P2;Temp;Humidity;BMP_temperature;BMP_pressure;BME280_temperature;BME280_humidity;BME280_pressure;Samples;Min_cycle;Max_cycle;Signal;HPM_P1;HPM_P2
2023/01/14 00:00:17;;;;;;;1.92;1.77;;;;;;;4.14;100.00;100299.81;5988883;23;20444;-94
2023/01/14 00:02:42;;;;;;;2.58;2.13;;;;;;;4.06;100.00;100304.47;6038146;23;20011;-92
2023/01/14 00:05:08;;;;;;;2.33;2.15;;;;;;;3.90;100.00;100271.09;6011846;23;20138;-93
2023/01/14 00:07:34;;;;;;;4.70;3.47;;;;;;;3.87;100.00;100252.66;5989175;23;20021;-92
2023/01/14 00:10:00;;;;;;;1.20;1.20;;;;;;;3.91;100.00;100277.38;6013623;23;20085;-93
2023/01/14 00:12:25;;;;;;;6.28;2.95;;;;;;;3.91;100.00;100274.63;6012818;23;20556;-93
2023/01/14 00:14:51;;;;;;;1.92;1.83;;;;;;;3.91;100.00;100271.88;5989292;23;20068;-92
2023/01/14 00:17:17;;;;;;;1.63;1.48;;;;;;;3.87;100.00;100265.59;5989587;23;20015;-93
2023/01/14 00:19:43;;;;;;;2.22;2.10;;;;;;;3.85;100.00;100263.22;5988558;23;20018;-94
2023/01/14 00:22:08;;;;;;;3.90;3.47;;;;;;;3.94;100.00;100290.31;6012728;23;20062;-93
2023/01/14 00:24:34;;;;;;;2.58;2.22;;;;;;;3.74;100.00;100265.94;6013140;23;20345;-93
2023/01/14 00:27:00;;;;;;;4.80;1.67;;;;;;;3.98;100.00;100297.41;6012709;23;20012;-93
2023/01/14 00:29:33;;;;;;;3.35;2.15;;;;;;;3.99;100.00;100296.22;5989011;23;20022;-96
2023/01/14 00:32:00;;;;;;;;;;;;;;;3.96;100.00;100299.75;5990054;23;20011;-93
2023/01/14 00:34:27;;;;;;;4.35;3.55;;;;;;;3.83;100.00;100284.78;5986832;23;20299;-95
2023/01/14 00:36:53;;;;;;;2.78;2.58;;;;;;;3.95;100.00;100303.66;5988070;23;20038;-93
2023/01/14 00:39:19;;;;;;;2.97;2.72;;;;;;;3.79;100.00;100277.72;5988636;23;20019;-94
2023/01/14 00:41:45;;;;;;;3.10;2.90;;;;;;;3.90;100.00;100306.78;6012315;23;20405;-93
2023/01/14 00:44:11;;;;;;;1.08;1.08;;;;;;;3.89;100.00;100318.13;6012556;23;20015;-93
2023/01/14 00:46:39;;;;;;;1.73;1.55;;;;;;;3.72;100.00;100292.19;6012568;23;20484;-93
2023/01/14 00:49:07;;;;;;;1.42;1.40;;;;;;;3.84;100.00;100307.53;5962612;23;20465;-94
2023/01/14 00:51:33;;;;;;;5.30;3.90;;;;;;;3.77;100.00;100297.28;6011353;23;20063;-93
2023/01/14 00:54:00;;;;;;;2.88;2.65;;;;;;;3.75;100.00;100305.13;6012521;23;20016;-94
2023/01/14 00:56:26;;;;;;;1.60;1.50;;;;;;;3.71;100.00;100298.84;5988134;23;20122;-92
2023/01/14 00:58:52;;;;;;;3.47;3.05;;;;;;;3.78;100.00;100315.34;6010854;23;20423;-93
2023/01/14 01:01:19;;;;;;;3.42;1.13;;;;;;;3.84;100.00;100329.50;5964851;23;20039;-94
2023/01/14 01:03:47;;;;;;;1.75;1.65;;;;;;;3.75;100.00;100330.63;6012019;23;20011;-93
2023/01/14 01:06:14;;;;;;;3.63;2.60;;;;;;;3.54;100.00;100297.59;5988126;23;20015;-93
2023/01/14 01:08:40;;;;;;;5.85;4.10;;;;;;;3.67;100.00;100326.28;5988965;23;20007;-93
2023/01/14 01:11:06;;;;;;;3.40;2.22;;;;;;;3.57;100.00;100326.97;6013012;23;20352;-95
2023/01/14 01:13:31;;;;;;;4.38;3.25;;;;;;;3.57;100.00;100332.47;6011724;23;20106;-94
2023/01/14 01:16:04;;;;;;;3.65;2.72;;;;;;;3.35;100.00;100292.38;6012120;23;20406;-94
2023/01/14 01:18:30;;;;;;;2.22;1.92;;;;;;;3.54;100.00;100305.81;6013742;23;20011;-93
2023/01/14 01:21:07;;;;;;;3.20;2.92;;;;;;;3.66;100.00;100316.47;6013578;23;20026;-93
2023/01/14 01:23:40;;;;;;;4.07;1.77;;;;;;;3.63;100.00;100313.69;5990138;23;20014;-92
2023/01/14 01:26:10;;;;;;;4.38;4.07;;;;;;;3.62;100.00;100323.88;5991235;23;20050;-93
2023/01/14 01:28:36;;;;;;;2.63;2.42;;;;;;;3.58;100.00;100327.78;5989674;23;20449;-94
2023/01/14 01:31:04;;;;;;;2.28;2.08;;;;;;;3.48;100.00;100306.56;5988814;23;20015;-93
2023/01/14 01:33:30;;;;;;;1.25;1.20;;;;;;;3.61;100.00;100335.22;6012177;23;19999;-94
2023/01/14 01:36:17;;;;;;;8.27;4.22;;;;;;;3.62;100.00;100339.53;5989060;23;20011;-93
2023/01/14 01:38:43;;;;;;;2.40;2.30;;;;;;;3.56;100.00;100333.63;5966148;23;20024;-94
2023/01/14 01:41:15;;;;;;;5.70;3.08;;;;;;;3.59;100.00;100327.41;5988981;23;20023;-93
2023/01/14 01:44:08;;;;;;;2.88;2.67;;;;;;;3.55;100.00;100334.81;6012734;23;20091;-94
2023/01/14 01:46:35;;;;;;;2.83;2.63;;;;;;;3.60;100.00;100319.97;5988214;23;20015;-93
2023/01/14 01:49:13;;;;;;;1.27;1.10;;;;;;;3.58;100.00;100334.03;6012186;23;20376;-93
2023/01/14 01:51:49;;;;;;;1.17;1.02;;;;;;;3.55;100.00;100340.31;6037274;23;20016;-93
2023/01/14 01:54:16;;;;;;;2.72;2.55;;;;;;;3.51;100.00;100344.97;6010810;23;20011;-93
2023/01/14 01:56:45;;;;;;;4.43;2.75;;;;;;;3.47;100.00;100338.69;6011882;23;20445;-93
2023/01/14 01:59:15;;;;;;;2.25;2.08;;;;;;;3.36;100.00;100326.81;5989021;23;20027;-94
2023/01/14 02:07:18;;;;;;;0.93;0.93;;;;;;;3.33;100.00;100344.06;6062864;23;20355;-90
2023/01/14 02:09:45;;;;;;;3.35;3.03;;;;;;;3.25;100.00;100342.41;5992470;23;20029;-91
2023/01/14 02:12:21;;;;;;;2.28;2.08;;;;;;;3.15;100.00;100329.44;5992202;23;20027;-90
2023/01/14 02:15:00;;;;;;;2.13;2.03;;;;;;;3.24;100.00;100335.34;6040021;23;20147;-90
2023/01/14 02:17:34;;;;;;;9.88;3.25;;;;;;;3.26;100.00;100341.25;6038987;23;20027;-92
2023/01/14 02:20:23;;;;;;;2.70;2.53;;;;;;;3.21;100.00;100352.56;6038407;23;20022;-92
2023/01/14 02:23:23;;;;;;;2.05;1.80;;;;;;;3.18;100.00;100361.56;6015251;23;20051;-91
2023/01/14 02:26:13;;;;;;;0.85;0.85;;;;;;;3.18;100.00;100345.13;6036341;23;20082;-91
2023/01/14 02:29:10;;;;;;;2.78;2.60;;;;;;;3.16;100.00;100361.94;6000808;23;20054;-91
2023/01/14 02:31:41;;;;;;;3.00;2.80;;;;;;;3.13;100.00;100345.47;6015860;23;20019;-92
2023/01/14 02:34:18;;;;;;;2.38;1.65;;;;;;;3.06;100.00;100350.88;6015231;23;20079;-91
2023/01/14 02:36:58;;;;;;;2.45;2.00;;;;;;;2.79;100.00;100353.78;6014694;23;20050;-92
2023/01/14 02:39:27;;;;;;;4.32;3.20;;;;;;;2.96;100.00;100368.00;5994278;23;20412;-90
2023/01/14 02:44:45;;;;;;;1.42;1.35;;;;;;;2.92;100.00;100378.16;6044884;23;20428;-92
2023/01/14 02:47:23;;;;;;;4.40;2.85;;;;;;;2.80;100.00;100349.06;6017103;23;20451;-90
2023/01/14 02:49:52;;;;;;;0.95;0.95;;;;;;;2.90;100.00;100377.75;5993819;23;20359;-92
2023/01/14 02:52:19;;;;;;;2.95;2.75;;;;;;;2.77;100.00;100367.06;5993061;23;20057;-91
2023/01/14 02:54:56;;;;;;;6.82;3.45;;;;;;;2.75;100.00;100368.63;6017605;23;20003;-92
2023/01/14 02:57:42;;;;;;;1.02;0.93;;;;;;;2.72;100.00;100375.63;6017389;23;20019;-93
2023/01/14 03:00:26;;;;;;;2.78;2.22;;;;;;;2.63;100.00;100366.16;6040897;23;20061;-91
2023/01/14 03:03:07;;;;;;;5.07;2.40;;;;;;;2.59;100.00;100382.50;6016800;23;20019;-92
2023/01/14 03:05:59;;;;;;;3.42;2.58;;;;;;;2.54;100.00;100391.09;6015515;23;20109;-91
2023/01/14 03:08:37;;;;;;;4.93;4.45;;;;;;;2.47;100.00;100385.50;6040074;23;20053;-91
2023/01/14 03:11:08;;;;;;;3.10;2.80;;;;;;;2.37;100.00;100358.81;6016977;23;20463;-88
2023/01/14 03:13:37;;;;;;;2.47;2.25;;;;;;;2.45;100.00;100365.94;5994084;23;20078;-89
2023/01/14 03:16:15;;;;;;;2.30;1.98;;;;;;;2.37;100.00;100368.97;6017362;23;20424;-90
2023/01/14 03:19:00;;;;;;;1.55;1.45;;;;;;;2.38;100.00;100376.81;6017969;23;20436;-92
2023/01/14 03:21:37;;;;;;;1.65;1.55;;;;;;;2.29;100.00;100371.63;6017333;23;20019;-91
2023/01/14 03:24:17;;;;;;;5.45;1.98;;;;;;;2.34;100.00;100387.72;5993655;23;20364;-91
2023/01/14 03:26:47;;;;;;;4.43;3.08;;;;;;;2.22;100.00;100378.97;6040018;23;20124;-92
2023/01/14 03:29:27;;;;;;;3.25;1.63;;;;;;;2.22;100.00;100384.44;6017084;23;20121;-91
2023/01/14 03:32:03;;;;;;;3.15;2.72;;;;;;;2.18;100.00;100389.09;5993864;23;20015;-92
2023/01/14 03:34:35;;;;;;;1.80;1.70;;;;;;;2.17;100.00;100380.09;6017099;23;20351;-93
2023/01/14 03:37:02;;;;;;;2.90;1.92;;;;;;;2.10;100.00;100388.22;6017233;23;20116;-90
2023/01/14 03:39:29;;;;;;;1.77;1.67;;;;;;;1.85;100.00;100344.13;6017474;23;20014;-92
2023/01/14 03:44:46;;;;;;;2.08;1.83;;;;;;;1.98;100.00;100385.72;6020232;23;20015;-91
2023/01/14 03:47:12;;;;;;;3.95;2.28;;;;;;;1.79;100.00;100358.47;6040919;23;20336;-91
2023/01/14 03:49:37;;;;;;;3.17;2.88;;;;;;;1.92;100.00;100383.66;6018709;23;20011;-90
2023/01/14 03:52:13;;;;;;;1.95;1.30;;;;;;;1.98;100.00;100382.97;6049631;23;20011;-89
2023/01/14 03:54:56;;;;;;;2.05;1.58;;;;;;;1.89;100.00;100371.50;6016600;23;20054;-91
2023/01/14 03:57:46;;;;;;;3.38;3.05;;;;;;;1.76;100.00;100351.78;6017222;23;20010;-92
2023/01/14 04:00:21;;;;;;;1.42;1.33;;;;;;;2.00;100.00;100404.47;5996635;23;20021;-91
2023/01/14 04:02:47;;;;;;;2.72;2.13;;;;;;;1.93;100.00;100398.91;5993037;23;20015;-90
2023/01/14 04:05:13;;;;;;;0.95;0.90;;;;;;;1.97;100.00;100410.69;6040275;23;20395;-90
2023/01/14 04:07:39;;;;;;;0.80;0.80;;;;;;;1.80;100.00;100396.41;6016416;23;20451;-91
2023/01/14 04:10:05;;;;;;;1.08;1.08;;;;;;;1.61;100.00;100379.31;6040893;23;20470;-91
2023/01/14 04:12:30;;;;;;;1.27;1.17;;;;;;;1.79;100.00;100416.69;5993069;23;20018;-90
2023/01/14 04:17:40;;;;;;;1.58;1.48;;;;;;;1.73;100.00;100414.66;6021060;23;20017;-90
2023/01/14 04:20:06;;;;;;;4.32;2.03;;;;;;;1.73;100.00;100425.59;5992953;23;20023;-92
2023/01/14 04:22:32;;;;;;;0.68;0.68;;;;;;;1.83;100.00;100439.41;5992688;23;20011;-90
2023/01/14 04:24:58;;;;;;;1.20;1.05;;;;;;;1.65;100.00;100421.97;5993570;23;20046;-91
2023/01/14 04:27:24;;;;;;;2.30;2.17;;;;;;;1.77;100.00;100445.56;5993512;23;20007;-90
2023/01/14 04:29:49;;;;;;;3.38;3.08;;;;;;;1.68;100.00;100429.41;5992761;23;20530;-91
2023/01/14 04:32:15;;;;;;;3.20;2.67;;;;;;;1.67;100.00;100430.56;6017064;23;20015;-90
2023/01/14 04:34:40;;;;;;;2.20;2.00;;;;;;;1.73;100.00;100451.00;6015801;23;20006;-91
2023/01/14 04:37:07;;;;;;;3.15;2.95;;;;;;;1.75;100.00;100453.34;6039838;23;20026;-91
2023/01/14 04:39:34;;;;;;;1.42;1.38;;;;;;;1.76;100.00;100463.94;5994013;23;20034;-91
2023/01/14 04:44:44;;;;;;;1.10;1.10;;;;;;;1.78;100.00;100472.53;6020270;23;20081;-91
2023/01/14 04:47:10;;;;;;;6.18;2.03;;;;;;;1.79;100.00;100465.13;5992957;23;20518;-92
2023/01/14 04:49:36;;;;;;;0.88;0.88;;;;;;;1.77;100.00;100462.00;6016678;23;20380;-92
2023/01/14 04:52:01;;;;;;;2.97;2.78;;;;;;;1.39;100.00;100408.25;5992518;23;20011;-90
2023/01/14 04:54:27;;;;;;;1.88;1.77;;;;;;;1.65;100.00;100454.78;6016683;23;20038;-92
2023/01/14 04:56:52;;;;;;;1.48;1.38;;;;;;;1.69;100.00;100458.34;6040154;23;20019;-91
2023/01/14 04:59:18;;;;;;;2.45;2.30;;;;;;;1.61;100.00;100459.41;6015923;23;20053;-90
2023/01/14 05:01:44;;;;;;;0.98;0.98;;;;;;;1.74;100.00;100479.13;6040025;23;20015;-92
2023/01/14 05:04:09;;;;;;;2.45;2.17;;;;;;;1.65;100.00;100470.38;5992838;23;20019;-90
2023/01/14 05:06:35;;;;;;;2.80;2.60;;;;;;;1.76;100.00;100485.81;6015200;23;20506;-91
2023/01/14 05:09:00;;;;;;;1.23;1.20;;;;;;;1.79;100.00;100482.34;6016238;23;20015;-91
2023/01/14 05:11:26;;;;;;;2.55;2.35;;;;;;;1.53;100.00;100446.78;6016024;23;19999;-90
2023/01/14 05:13:52;;;;;;;3.95;3.42;;;;;;;1.69;100.00;100488.44;5992551;23;20048;-91
2023/01/14 05:16:17;;;;;;;1.92;1.83;;;;;;;1.59;100.00;100478.09;5993102;23;20094;-91
2023/01/14 05:18:43;;;;;;;4.20;2.28;;;;;;;1.61;100.00;100503.16;6039908;23;20021;-91
2023/01/14 05:21:09;;;;;;;2.63;2.45;;;;;;;1.60;100.00;100517.19;5992503;23;20019;-90
2023/01/14 05:23:35;;;;;;;2.28;1.38;;;;;;;1.40;100.00;100497.31;6016032;23;20010;-90
2023/01/14 05:26:00;;;;;;;2.13;2.03;;;;;;;1.47;100.00;100513.81;6015855;23;20007;-91
2023/01/14 05:28:26;;;;;;;2.53;2.28;;;;;;;1.38;100.00;100511.31;6015659;23;20123;-90
2023/01/14 05:30:52;;;;;;;5.32;1.63;;;;;;;1.33;100.00;100519.06;6015671;23;20466;-91
2023/01/14 05:33:17;;;;;;;1.50;1.40;;;;;;;1.32;100.00;100533.88;5992806;23;20019;-90
2023/01/14 05:35:43;;;;;;;3.00;2.75;;;;;;;1.30;100.00;100531.47;6015635;23;20054;-90
2023/01/14 05:38:09;;;;;;;1.77;1.67;;;;;;;1.31;100.00;100516.69;5992676;23;20459;-91
2023/01/14 05:40:35;;;;;;;11.88;3.83;;;;;;;1.22;100.00;100523.50;5992670;23;20058;-91
2023/01/14 05:45:48;;;;;;;1.15;1.13;;;;;;;1.20;100.00;100523.91;6019224;23;20098;-91
2023/01/14 05:48:16;;;;;;;1.00;1.00;;;;;;;1.24;100.00;100515.75;6040566;23;20007;-91
2023/01/14 05:50:41;;;;;;;1.55;1.33;;;;;;;1.26;100.00;100525.16;6015802;23;20444;-91
2023/01/14 05:53:07;;;;;;;1.77;1.67;;;;;;;1.09;100.00;100492.06;5991592;23;20014;-91
2023/01/14 05:55:35;;;;;;;0.60;0.60;;;;;;;1.28;100.00;100524.81;6016691;23;20042;-91
2023/01/14 05:58:03;;;;;;;2.03;1.63;;;;;;;1.25;100.00;100525.53;6039717;23;20026;-91
2023/01/14 06:08:35;;;;;;;2.05;1.70;;;;;;;1.44;100.00;100541.91;6018836;23;20015;-90
2023/01/14 06:11:01;;;;;;;1.85;1.75;;;;;;;1.51;100.00;100555.69;6016290;23;20091;-91
2023/01/14 06:13:26;;;;;;;3.17;2.92;;;;;;;1.50;100.00;100556.84;6015936;23;20519;-91
2023/01/14 06:15:52;;;;;;;0.73;0.68;;;;;;;1.42;100.00;100544.97;5991772;23;20015;-89
2023/01/14 06:18:22;;;;;;;1.42;1.27;;;;;;;1.48;100.00;100541.97;6016929;23;20011;-89
2023/01/14 06:20:52;;;;;;;2.17;1.92;;;;;;;1.55;100.00;100564.75;6018007;23;20045;-91
2023/01/14 06:23:20;;;;;;;3.05;2.80;;;;;;;1.53;100.00;100571.75;6017955;23;20025;-91
2023/01/14 06:25:47;;;;;;;2.03;1.83;;;;;;;1.52;100.00;100568.22;6018309;23;20106;-92
2023/01/14 06:28:14;;;;;;;3.40;2.78;;;;;;;1.33;100.00;100538.19;6017660;23;20015;-91
2023/01/14 06:30:40;;;;;;;1.52;1.30;;;;;;;1.38;100.00;100554.28;6016764;23;20019;-90
2023/01/14 06:33:08;;;;;;;1.77;1.58;;;;;;;1.45;100.00;100565.34;6018060;23;20021;-91
2023/01/14 06:35:34;;;;;;;3.70;3.42;;;;;;;1.39;100.00;100544.91;6018000;23;20101;-92
2023/01/14 06:38:00;;;;;;;2.85;2.65;;;;;;;1.56;100.00;100560.88;6017467;23;20011;-92
2023/01/14 06:40:26;;;;;;;3.22;2.92;;;;;;;1.56;100.00;100571.81;6017894;23;20030;-90
2023/01/14 06:42:55;;;;;;;1.73;1.33;;;;;;;1.26;100.00;100529.84;5993788;23;20011;-92
2023/01/14 06:45:22;;;;;;;1.50;1.40;;;;;;;1.49;100.00;100566.22;6040816;23;20015;-87
2023/01/14 06:47:47;;;;;;;5.32;4.85;;;;;;;1.53;100.00;100582.69;5994645;23;20007;-91
2023/01/14 06:50:14;;;;;;;2.72;2.55;;;;;;;1.49;100.00;100566.22;6038616;23;20015;-90
2023/01/14 06:52:40;;;;;;;2.65;2.45;;;;;;;1.45;100.00;100570.03;6014958;23;20078;-91
2023/01/14 06:55:06;;;;;;;1.80;1.50;;;;;;;1.48;100.00;100586.50;6013432;23;20455;-91
2023/01/14 06:57:31;;;;;;;2.28;2.17;;;;;;;1.48;100.00;100591.97;6039682;23;20131;-91
2023/01/14 06:59:57;;;;;;;3.30;2.53;;;;;;;1.42;100.00;100565.28;5991784;23;20018;-91
2023/01/14 07:02:23;;;;;;;2.85;2.63;;;;;;;1.41;100.00;100591.84;5991982;23;20454;-90
2023/01/14 07:04:48;;;;;;;3.35;3.05;;;;;;;1.45;100.00;100598.16;6039343;23;20503;-91
2023/01/14 07:07:14;;;;;;;2.35;2.25;;;;;;;1.45;100.00;100583.69;6013223;23;20054;-90
2023/01/14 07:09:39;;;;;;;0.43;0.43;;;;;;;1.38;100.00;100576.94;6014051;23;20074;-90
2023/01/14 07:12:05;;;;;;;2.22;2.08;;;;;;;1.49;100.00;100593.56;6014417;23;20002;-90
2023/01/14 07:14:31;;;;;;;2.10;2.00;;;;;;;1.49;100.00;100593.56;6015227;23;20019;-92
2023/01/14 07:16:56;;;;;;;1.15;1.10;;;;;;;1.56;100.00;100604.63;6016150;23;20014;-90
2023/01/14 07:19:22;;;;;;;3.20;2.42;;;;;;;1.59;100.00;100592.16;6040547;23;20019;-90
2023/01/14 07:21:47;;;;;;;3.60;3.20;;;;;;;1.65;100.00;100591.50;5995571;23;20444;-89
2023/01/14 07:24:13;;;;;;;2.22;2.03;;;;;;;1.55;100.00;100564.75;5992481;23;20044;-91
2023/01/14 07:26:38;;;;;;;1.42;1.33;;;;;;;1.71;100.00;100584.56;6016513;23;20022;-89
2023/01/14 07:29:04;;;;;;;2.03;1.85;;;;;;;1.68;100.00;100566.16;6039759;23;20023;-90
2023/01/14 07:31:30;;;;;;;4.28;1.13;;;;;;;1.67;100.00;100539.16;6016041;23;20014;-89
2023/01/14 07:33:55;;;;;;;4.03;2.08;;;;;;;1.87;100.00;100560.63;6015061;23;20102;-90
2023/01/14 07:36:21;;;;;;;0.93;0.93;;;;;;;2.01;100.00;100570.22;6062640;23;20037;-90
2023/01/14 07:38:46;;;;;;;2.17;1.45;;;;;;;2.22;100.00;100600.69;5991076;23;20015;-92
2023/01/14 07:41:17;;;;;;;6.70;3.60;;;;;;;2.27;100.00;100603.88;6037964;23;20400;-90
2023/01/14 07:43:47;;;;;;;3.95;3.45;;;;;;;2.21;100.00;100579.94;6040041;23;20043;-90
2023/01/14 07:46:13;;;;;;;2.58;2.40;;;;;;;2.28;100.00;100580.81;6063883;23;20017;-89
2023/01/14 07:48:40;;;;;;;2.88;2.05;;;;;;;2.35;100.00;100575.44;6039631;23;20022;-90
2023/01/14 07:51:08;;;;;;;3.78;2.80;;;;;;;2.70;100.00;100619.00;6038863;23;20013;-90
2023/01/14 07:53:34;;;;;;;3.30;2.67;;;;;;;2.68;100.00;100582.97;6040161;23;20053;-90
2023/01/14 07:56:03;;;;;;;1.58;1.48;;;;;;;2.57;100.00;100560.13;6038717;23;20013;-91
2023/01/14 07:58:29;;;;;;;3.15;2.85;;;;;;;2.86;100.00;100609.81;6064879;23;20043;-92
2023/01/14 08:00:55;;;;;;;2.38;2.22;;;;;;;2.83;100.00;100616.03;6063283;23;20042;-91
2023/01/14 08:03:21;;;;;;;2.45;2.03;;;;;;;2.55;100.00;100589.81;6038819;23;20102;-92
2023/01/14 08:05:47;;;;;;;3.95;2.47;;;;;;;2.59;100.00;100601.59;6038282;23;20025;-91
2023/01/14 08:08:12;;;;;;;1.05;1.05;;;;;;;2.61;100.00;100613.00;6037515;23;20011;-91
2023/01/14 08:10:38;;;;;;;3.65;2.28;;;;;;;2.59;100.00;100612.56;6014695;23;20019;-91
2023/01/14 08:13:04;;;;;;;1.17;1.17;;;;;;;2.27;100.00;100583.91;6039093;23;20018;-90
2023/01/14 08:15:30;;;;;;;2.17;1.42;;;;;;;2.22;100.00;100592.47;6014644;23;20041;-91
2023/01/14 08:17:56;;;;;;;4.82;3.63;;;;;;;2.45;100.00;100608.84;6037963;23;20112;-90
2023/01/14 08:20:25;;;;;;;3.47;2.42;;;;;;;2.23;100.00;100591.28;6014773;23;20452;-90
2023/01/14 08:22:56;;;;;;;5.43;4.22;;;;;;;2.14;100.00;100586.09;6063976;23;20391;-90
2023/01/14 08:25:21;;;;;;;0.80;0.80;;;;;;;2.14;100.00;100610.72;6037838;23;20063;-91
2023/01/14 08:27:47;;;;;;;3.70;2.15;;;;;;;2.05;100.00;100579.28;6038712;23;20056;-92
2023/01/14 08:30:12;;;;;;;1.50;1.15;;;;;;;2.32;100.00;100639.16;6014658;23;20011;-91
2023/01/14 08:32:38;;;;;;;1.13;1.13;;;;;;;2.40;100.00;100625.56;6037923;23;20456;-90
2023/01/14 08:35:04;;;;;;;0.95;0.95;;;;;;;2.38;100.00;100614.22;6037959;23;20010;-91
2023/01/14 08:37:30;;;;;;;2.03;1.85;;;;;;;2.68;100.00;100624.06;6014787;23;20038;-91
2023/01/14 08:39:55;;;;;;;3.58;2.88;;;;;;;2.90;100.00;100625.16;6014055;23;20113;-91
2023/01/14 08:42:21;;;;;;;1.23;1.17;;;;;;;3.09;100.00;100629.69;6063731;23;20015;-91
2023/01/14 08:44:46;;;;;;;1.65;1.55;;;;;;;3.18;100.00;100622.78;6063571;23;20093;-91
2023/01/14 08:47:12;;;;;;;2.83;2.60;;;;;;;3.26;100.00;100629.13;6037469;23;20065;-90
2023/01/14 08:49:38;;;;;;;2.22;2.03;;;;;;;3.44;100.00;100635.59;6062896;23;20014;-91
2023/01/14 08:52:03;;;;;;;1.10;1.05;;;;;;;3.31;100.00;100604.13;6037941;23;20046;-91
2023/01/14 08:54:29;;;;;;;5.18;4.72;;;;;;;3.49;100.00;100624.31;6038324;23;20503;-91
2023/01/14 08:56:55;;;;;;;2.67;2.58;;;;;;;3.80;100.00;100663.44;6037782;23;20125;-91
2023/01/14 08:59:21;;;;;;;1.63;1.52;;;;;;;3.75;100.00;100626.97;6037753;23;20019;-92
2023/01/14 09:01:47;;;;;;;2.15;1.95;;;;;;;3.87;100.00;100619.63;6037514;23;20440;-91
2023/01/14 09:04:13;;;;;;;2.55;2.35;;;;;;;4.13;100.00;100649.63;6014345;23;20086;-92
2023/01/14 09:17:04;;;;;;;8.95;2.97;;;;;;;4.04;100.00;100621.75;6013834;23;20014;-89
2023/01/14 09:17:38;;;;;;;5.63;4.15;;;;;;;4.70;100.00;100670.91;6038093;23;20094;-89
2023/01/14 09:20:16;;;;;;;2.75;2.53;;;;;;;4.65;100.00;100671.25;6014497;23;20038;-90
2023/01/14 09:22:41;;;;;;;2.28;2.08;;;;;;;4.81;100.00;100667.47;6012526;23;20019;-91
2023/01/14 09:25:07;;;;;;;2.50;2.30;;;;;;;4.98;100.00;100683.25;5992933;23;20025;-91
2023/01/14 09:27:33;;;;;;;3.63;2.97;;;;;;;5.08;100.00;100677.06;6039770;23;20026;-90
2023/01/14 09:29:59;;;;;;;1.65;1.55;;;;;;;5.14;100.00;100668.03;6014892;23;20449;-91
2023/01/14 09:32:24;;;;;;;2.33;2.22;;;;;;;5.10;100.00;100649.94;5991736;23;20105;-91
2023/01/14 09:34:52;;;;;;;2.58;1.98;;;;;;;5.04;100.00;100644.03;5992343;23;20003;-92
2023/01/14 09:37:20;;;;;;;1.80;1.70;;;;;;;5.25;100.00;100668.13;6014972;23;20014;-91
2023/01/14 09:39:50;;;;;;;2.17;1.95;;;;;;;5.11;100.00;100627.56;6014419;23;20011;-92
2023/01/14 09:42:29;;;;;;;5.97;2.42;;;;;;;5.43;100.00;100655.22;5992495;23;20022;-94
2023/01/14 09:45:05;;;;;;;2.05;1.95;;;;;;;5.44;100.00;100645.78;6015255;23;20015;-91
2023/01/14 09:47:31;;;;;;;3.75;2.47;;;;;;;5.45;100.00;100624.56;6015340;23;20047;-92
2023/01/14 09:49:57;;;;;;;1.30;1.25;;;;;;;5.71;100.00;100642.72;5991861;23;20478;-91
2023/01/14 09:52:49;;;;;;;2.13;1.95;;;;;;;5.95;100.00;100658.53;6015969;23;20047;-93
2023/01/14 09:55:29;;;;;;;2.83;1.38;;;;;;;6.06;100.00;100660.16;6039407;23;20019;-90
2023/01/14 09:57:57;;;;;;;3.42;2.55;;;;;;;6.21;100.00;100627.88;6016108;23;20022;-91
2023/01/14 10:00:56;;;;;;;6.05;3.08;;;;;;;6.50;100.00;100634.19;5994379;23;20026;-91
2023/01/14 10:03:42;;;;;;;1.80;1.63;;;;;;;6.55;100.00;100620.78;5998896;23;20022;-93
2023/01/14 10:06:14;;;;;;;2.42;2.22;;;;;;;6.93;100.00;100629.38;6039165;23;20022;-92
2023/01/14 10:08:49;;;;;;;9.48;2.85;;;;;;;7.11;100.00;100619.09;6017544;23;20337;-92
2023/01/14 10:11:16;;;;;;;3.63;2.17;;;;;;;7.38;100.00;100628.44;5995020;23;20467;-92
2023/01/14 10:13:58;;;;;;;2.95;2.45;;;;;;;7.49;100.00;100609.06;5994050;23;20076;-92
2023/01/14 10:16:31;;;;;;;2.58;1.77;;;;;;;7.71;100.00;100596.72;6018118;23;20396;-93
2023/01/14 10:19:05;;;;;;;2.67;2.40;;;;;;;8.01;100.00;100598.88;5994565;23;20026;-93
2023/01/14 10:22:09;;;;;;;0.57;0.45;;;;;;;8.23;100.00;100616.09;6017205;23;20471;-93
2023/01/14 10:24:41;;;;;;;;;;;;;;;8.11;100.00;100609.06;5923331;23;20030;-92
2023/01/14 10:27:18;;;;;;;1.92;1.83;;;;;;;8.34;100.00;100616.81;6016690;23;19913;-93
2023/01/14 10:29:45;;;;;;;2.10;2.00;;;;;;;8.70;100.00;100608.97;5993042;23;20014;-93
2023/01/14 10:32:13;;;;;;;3.20;1.38;;;;;;;8.74;100.00;100613.28;5993124;23;20444;-92
2023/01/14 10:34:40;;;;;;;3.50;1.45;;;;;;;8.89;100.00;100613.94;5992746;23;20462;-92
2023/01/14 10:37:07;;;;;;;2.40;2.20;;;;;;;8.81;100.00;100573.69;5992841;23;20011;-92
2023/01/14 10:39:33;;;;;;;2.03;1.63;;;;;;;9.10;100.00;100574.91;6017239;23;20022;-94
2023/01/14 10:42:03;;;;;;;0.47;0.47;;;;;;;9.38;100.00;100602.25;6016453;23;20442;-92
2023/01/14 10:44:31;;;;;;;3.28;1.85;;;;;;;9.46;100.00;100602.19;6015812;23;20019;-93
2023/01/14 10:47:08;;;;;;;5.47;1.63;;;;;;;9.38;100.00;100593.19;5992931;23;20270;-93
2023/01/14 10:49:51;;;;;;;6.65;2.88;;;;;;;9.49;100.00;100601.34;5997482;23;20082;-93
2023/01/14 10:52:19;;;;;;;0.98;0.95;;;;;;;9.64;100.00;100591.63;6039238;23;20082;-95
2023/01/14 10:55:12;;;;;;;2.33;2.08;;;;;;;9.92;100.00;100591.22;6015512;23;20010;-92
2023/01/14 10:57:44;;;;;;;1.92;1.77;;;;;;;9.94;100.00;100594.38;6017023;23;20042;-92
2023/01/14 11:00:28;;;;;;;2.90;2.10;;;;;;;10.01;100.00;100588.72;6015303;23;20058;-94
2023/01/14 11:02:54;;;;;;;1.45;1.35;;;;;;;9.88;100.00;100557.22;6016381;23;20456;-94
2023/01/14 11:05:27;;;;;;;1.88;1.77;;;;;;;9.95;100.00;100578.53;5992628;23;20034;-95
2023/01/14 11:07:54;;;;;;;2.80;2.50;;;;;;;9.78;100.00;100542.34;5994534;23;20033;-94
2023/01/14 11:10:31;;;;;;;1.85;1.30;;;;;;;9.86;100.00;100570.75;6018315;23;20014;-95
2023/01/14 11:13:16;;;;;;;2.40;2.17;;;;;;;10.22;100.00;100577.31;6018561;23;20011;-95
2023/01/14 11:15:45;;;;;;;1.77;1.42;;;;;;;10.38;100.00;100562.00;6018656;23;20089;-94
2023/01/14 11:18:14;;;;;;;0.68;0.68;;;;;;;10.67;100.00;100572.16;6018483;23;20018;-94
2023/01/14 11:20:40;;;;;;;1.40;1.30;;;;;;;10.50;97.18;100547.50;6067574;23;20098;-95
2023/01/14 11:23:25;;;;;;;0.32;0.32;;;;;;;10.45;100.00;100545.22;6020145;23;20131;-92
2023/01/14 11:25:51;;;;;;;0.77;0.63;;;;;;;10.48;92.49;100528.50;5994949;23;20086;-94
2023/01/14 11:28:17;;;;;;;3.08;2.03;;;;;;;10.64;98.90;100525.03;6020720;23;20126;-94
2023/01/14 11:30:46;;;;;;;0.20;0.20;;;;;;;11.09;99.11;100561.41;5993440;23;20033;-94
2023/01/14 11:33:20;;;;;;;0.50;0.50;;;;;;;10.87;95.34;100500.03;6017952;23;20038;-93
2023/01/14 11:35:51;;;;;;;1.02;0.93;;;;;;;11.14;94.85;100524.81;5992071;23;20093;-94
2023/01/14 11:38:21;;;;;;;1.67;0.93;;;;;;;10.99;89.45;100518.81;6016030;23;20058;-95
2023/01/14 11:43:50;;;;;;;0.52;0.52;;;;;;;11.12;87.22;100525.25;6021180;23;20455;-94
2023/01/14 11:46:16;;;;;;;1.77;1.67;;;;;;;11.35;89.49;100520.81;5992809;23;20065;-94
2023/01/14 11:48:42;;;;;;;1.27;1.17;;;;;;;11.44;86.56;100507.91;5992585;23;20471;-93
2023/01/14 11:51:17;;;;;;;2.17;1.92;;;;;;;11.09;79.35;100492.00;5992907;23;20027;-92
2023/01/14 11:53:47;;;;;;;2.70;1.73;;;;;;;11.49;83.03;100509.38;5992975;23;20019;-91
2023/01/14 11:56:20;;;;;;;1.85;1.10;;;;;;;11.47;78.42;100514.59;5995236;23;20027;-91
2023/01/14 11:58:46;;;;;;;0.93;0.93;;;;;;;11.60;80.60;100515.47;5998082;23;20010;-92
2023/01/14 12:01:28;;;;;;;1.17;1.08;;;;;;;11.79;78.30;100502.75;6018220;23;20359;-93
2023/01/14 12:04:16;;;;;;;0.63;0.63;;;;;;;11.97;78.91;100514.97;5995446;23;20472;-92
2023/01/14 12:06:46;;;;;;;1.27;1.17;;;;;;;11.88;80.30;100514.84;5995410;23;20010;-94
2023/01/14 12:09:18;;;;;;;1.20;1.10;;;;;;;11.51;83.79;100515.28;6020005;23;20027;-92
2023/01/14 12:11:56;;;;;;;1.58;1.05;;;;;;;11.33;85.66;100512.13;6044396;23;20015;-92
2023/01/14 12:17:24;;;;;;;0.85;0.60;;;;;;;11.29;84.61;100514.19;6023202;23;20102;-93
2023/01/14 12:20:10;;;;;;;1.60;1.35;;;;;;;11.19;82.13;100511.22;6021278;23;20072;-91